Time;durP1;ratioP1;P1;durP2;ratioP2;P2;SDS_P1;SDS_P2;PMS_P1;PMS_P2;Temp;Humidity;BMP_temperature;BMP_pressure;BME280_temperature;BME280_humidity;BME280_pressure;Samples;Min_cycle;Max_cycle;Signal;HPM_P1;HPM_P2
2022/04/23 00:01:01;;;;;;;;;;;;;;;;;;5115140;28;20236;-74
2022/04/23 00:03:26;;;;;;;;;;;;;;;;;;5114795;28;20324;-74
2022/04/23 00:05:53;;;;;;;;;;;;;;;;;;5116003;28;20022;-74
2022/04/23 00:08:19;;;;;;;;;;;;;;;;;;5115691;28;19917;-74
2022/04/23 00:10:46;;;;;;;;;;;;;;;;;;5115808;28;19922;-74
2022/04/23 00:13:14;;;;;;;;;;;;;;;;;;5115771;28;19964;-74
2022/04/23 00:15:39;;;;;;;;;;;;;;;;;;5115848;28;20010;-74
2022/04/23 00:18:10;;;;;;;;;;;;;;;;;;5115501;28;19959;-74
2022/04/23 00:20:36;;;;;;;;;;;;;;;;;;5115639;28;19919;-74
2022/04/23 00:23:02;;;;;;;;;;;;;;;;;;5115770;28;20399;-74
2022/04/23 00:25:28;;;;;;;;;;;;;;;;;;5114983;28;20014;-73
2022/04/23 00:27:53;;;;;;;;;;;;;;;;;;5115865;28;19951;-73
2022/04/23 00:30:21;;;;;;;;;;;;;;;;;;5115581;28;19915;-74
2022/04/23 00:32:46;;;;;;;;;;;;;;;;;;5115736;28;20269;-74
2022/04/23 00:35:18;;;;;;;;;;;;;;;;;;5115668;28;19923;-74
2022/04/23 00:37:44;;;;;;;;;;;;;;;;;;5115674;28;19923;-74
2022/04/23 00:40:16;;;;;;;;;;;;;;;;;;5114395;28;20337;-74
2022/04/23 00:42:48;;;;;;;;;;;;;;;;;;5114859;28;20450;-74
2022/04/23 00:45:13;;;;;;;;;;;;;;;;;;5098774;28;20363;-74
2022/04/23 00:47:38;;;;;;;;;;;;;;;;;;5114687;28;19912;-73
2022/04/23 00:50:04;;;;;;;;;;;;;;;;;;5114975;28;19923;-73
2022/04/23 00:52:29;;;;;;;;;;;;;;;;;;5114011;28;19916;-74
2022/04/23 00:54:55;;;;;;;;;;;;;;;;;;5113967;28;20011;-74
2022/04/23 00:57:20;;;;;;;;;;;;;;;;;;5114059;28;19912;-73
2022/04/23 00:59:47;;;;;;;;;;;;;;;;;;5114766;28;19927;-74
2022/04/23 01:02:12;;;;;;;;;;;;;;;;;;5114155;28;20487;-74
2022/04/23 01:04:37;;;;;;;;;;;;;;;;;;5114589;28;19926;-74
2022/04/23 01:07:03;;;;;;;;;;;;;;;;;;5117527;28;19919;-74
2022/04/23 01:09:29;;;;;;;;;;;;;;;;;;5118730;28;19923;-74
2022/04/23 01:11:54;;;;;;;;;;;;;;;;;;5117796;28;19912;-74
2022/04/23 01:14:19;;;;;;;;;;;;;;;;;;5101110;28;19962;-74
2022/04/23 01:16:45;;;;;;;;;;;;;;;;;;5118662;28;20333;-74
2022/04/23 01:19:10;;;;;;;;;;;;;;;;;;5118435;28;20348;-74
2022/04/23 01:21:35;;;;;;;;;;;;;;;;;;5100381;28;19923;-74
2022/04/23 01:24:00;;;;;;;;;;;;;;;;;;5118364;28;19927;-74
2022/04/23 01:26:28;;;;;;;;;;;;;;;;;;5117678;28;20002;-74
2022/04/23 01:28:54;;;;;;;;;;;;;;;;;;5118231;28;19919;-74
2022/04/23 01:31:19;;;;;;;;;;;;;;;;;;5118216;28;19912;-74
2022/04/23 01:33:44;;;;;;;;;;;;;;;;;;5118236;28;19911;-74
2022/04/23 01:36:09;;;;;;;;;;;;;;;;;;5117216;28;19919;-74
2022/04/23 01:38:37;;;;;;;;;;;;;;;;;;5117185;28;19912;-74
2022/04/23 01:41:02;;;;;;;;;;;;;;;;;;5117820;28;19976;-74
2022/04/23 01:43:27;;;;;;;;;;;;;;;;;;5117167;28;19919;-74
2022/04/23 01:45:53;;;;;;;;;;;;;;;;;;5117969;28;19911;-74
2022/04/23 01:48:18;;;;;;;;;;;;;;;;;;5117980;28;19912;-74
2022/04/23 01:50:43;;;;;;;;;;;;;;;;;;5117640;28;19951;-74
2022/04/23 01:53:11;;;;;;;;;;;;;;;;;;5117935;28;19911;-74
2022/04/23 01:55:39;;;;;;;;;;;;;;;;;;5116849;28;19922;-74
2022/04/23 01:58:04;;;;;;;;;;;;;;;;;;5116961;28;19912;-74
2022/04/23 02:00:29;;;;;;;;;;;;;;;;;;5115112;28;19939;-74
2022/04/23 02:02:57;;;;;;;;;;;;;;;;;;5116566;28;19912;-74
2022/04/23 02:05:22;;;;;;;;;;;;;;;;;;5116917;28;19968;-73
2022/04/23 02:07:48;;;;;;;;;;;;;;;;;;5117260;28;19970;-74
2022/04/23 02:10:14;;;;;;;;;;;;;;;;;;5117570;28;19912;-74
2022/04/23 02:12:39;;;;;;;;;;;;;;;;;;5116798;28;20091;-74
2022/04/23 02:15:08;;;;;;;;;;;;;;;;;;5116691;28;20389;-74
2022/04/23 02:17:37;;;;;;;;;;;;;;;;;;5116318;28;19947;-73
2022/04/23 02:20:06;;;;;;;;;;;;;;;;;;5117137;28;19927;-74
2022/04/23 02:22:33;;;;;;;;;;;;;;;;;;5117292;28;19916;-74
2022/04/23 02:25:01;;;;;;;;;;;;;;;;;;5117298;28;19951;-74
2022/04/23 02:27:26;;;;;;;;;;;;;;;;;;5117181;28;19965;-73
2022/04/23 02:29:52;;;;;;;;;;;;;;;;;;5117166;28;20275;-74
2022/04/23 02:32:19;;;;;;;;;;;;;;;;;;5117112;28;19927;-74
2022/04/23 02:34:45;;;;;;;;;;;;;;;;;;5116908;28;19931;-74
2022/04/23 02:37:11;;;;;;;;;;;;;;;;;;5116149;28;19911;-74
2022/04/23 02:39:40;;;;;;;;;;;;;;;;;;5117678;28;19916;-74
2022/04/23 02:42:09;;;;;;;;;;;;;;;;;;5115959;28;19912;-74
2022/04/23 02:44:35;;;;;;;;;;;;;;;;;;5115829;28;20010;-73
2022/04/23 02:47:01;;;;;;;;;;;;;;;;;;5098996;28;19912;-74
2022/04/23 02:49:26;;;;;;;;;;;;;;;;;;5115878;28;19919;-74
2022/04/23 02:51:53;;;;;;;;;;;;;;;;;;5115825;28;19912;-74
2022/04/23 02:54:19;;;;;;;;;;;;;;;;;;5115702;28;19912;-74
2022/04/23 02:56:45;;;;;;;;;;;;;;;;;;5115593;28;19935;-74
2022/04/23 02:59:10;;;;;;;;;;;;;;;;;;5116416;28;20018;-74
2022/04/23 03:01:36;;;;;;;;;;;;;;;;;;5115289;28;19955;-73
2022/04/23 03:04:02;;;;;;;;;;;;;;;;;;5116324;28;19939;-74
2022/04/23 03:06:30;;;;;;;;;;;;;;;;;;5116777;28;19916;-73
2022/04/23 03:08:56;;;;;;;;;;;;;;;;;;5116316;28;19915;-75
2022/04/23 03:11:21;;;;;;;;;;;;;;;;;;5116953;28;19922;-74
2022/04/23 03:13:47;;;;;;;;;;;;;;;;;;5115645;28;19912;-75
2022/04/23 03:16:12;;;;;;;;;;;;;;;;;;5116742;28;19975;-75
2022/04/23 03:18:37;;;;;;;;;;;;;;;;;;5116517;28;19968;-74
2022/04/23 03:21:02;;;;;;;;;;;;;;;;;;5116651;28;19976;-74
2022/04/23 03:23:30;;;;;;;;;;;;;;;;;;5115500;28;20325;-74
2022/04/23 03:25:55;;;;;;;;;;;;;;;;;;5116578;28;20002;-74
2022/04/23 03:28:23;;;;;;;;;;;;;;;;;;5115180;28;20008;-73
2022/04/23 03:30:51;;;;;;;;;;;;;;;;;;5115374;28;19976;-74
2022/04/23 03:33:16;;;;;;;;;;;;;;;;;;5116561;27;19951;-74
2022/04/23 03:35:41;;;;;;;;;;;;;;;;;;5115422;28;19955;-74
2022/04/23 03:38:06;;;;;;;;;;;;;;;;;;5116316;28;19912;-74
2022/04/23 03:40:32;;;;;;;;;;;;;;;;;;5116103;28;19923;-73
2022/04/23 03:42:59;;;;;;;;;;;;;;;;;;5115868;28;19972;-74
2022/04/23 03:45:25;;;;;;;;;;;;;;;;;;5115232;28;19935;-74
2022/04/23 03:47:50;;;;;;;;;;;;;;;;;;5116112;28;19972;-75
2022/04/23 03:50:15;;;;;;;;;;;;;;;;;;5115201;28;19920;-74
2022/04/23 03:52:41;;;;;;;;;;;;;;;;;;5115185;28;20413;-74
2022/04/23 03:55:08;;;;;;;;;;;;;;;;;;5114994;28;19916;-74
2022/04/23 03:57:43;;;;;;;;;;;;;;;;;;5115929;28;19911;-74
2022/04/23 04:00:09;;;;;;;;;;;;;;;;;;5114315;28;19915;-74
2022/04/23 04:02:34;;;;;;;;;;;;;;;;;;5105057;28;20060;-74
2022/04/23 04:05:00;;;;;;;;;;;;;;;;;;5111630;28;20329;-74
2022/04/23 04:07:25;;;;;;;;;;;;;;;;;;5099701;28;19946;-74
2022/04/23 04:09:50;;;;;;;;;;;;;;;;;;5099172;28;20057;-74
2022/04/23 04:12:15;;;;;;;;;;;;;;;;;;5115839;28;20280;-74
2022/04/23 04:14:42;;;;;;;;;;;;;;;;;;5115342;28;19911;-74
2022/04/23 04:17:09;;;;;;;;;;;;;;;;;;5115845;28;19911;-74
2022/04/23 04:19:34;;;;;;;;;;;;;;;;;;5115803;28;19969;-74
2022/04/23 04:22:02;;;;;;;;;;;;;;;;;;5114440;28;19919;-74
2022/04/23 04:24:27;;;;;;;;;;;;;;;;;;5115872;28;19911;-74
2022/04/23 04:26:55;;;;;;;;;;;;;;;;;;5114733;28;19961;-74
2022/04/23 04:29:20;;;;;;;;;;;;;;;;;;5097892;28;19916;-74
2022/04/23 04:31:52;;;;;;;;;;;;;;;;;;5115545;28;19912;-74
2022/04/23 04:34:20;;;;;;;;;;;;;;;;;;5116716;28;19911;-74
2022/04/23 04:36:46;;;;;;;;;;;;;;;;;;5115380;28;19948;-74
2022/04/23 04:39:12;;;;;;;;;;;;;;;;;;5115717;28;19920;-73
2022/04/23 04:41:39;;;;;;;;;;;;;;;;;;5099617;28;19979;-74
2022/04/23 04:44:05;;;;;;;;;;;;;;;;;;5119771;28;19998;-74
2022/04/23 04:46:30;;;;;;;;;;;;;;;;;;5118313;28;20363;-74
2022/04/23 04:48:58;;;;;;;;;;;;;;;;;;5119488;28;20002;-74
2022/04/23 04:51:23;;;;;;;;;;;;;;;;;;5118401;28;20048;-74
2022/04/23 04:53:49;;;;;;;;;;;;;;;;;;5101416;28;20347;-74
2022/04/23 04:56:14;;;;;;;;;;;;;;;;;;5119348;28;20352;-74
2022/04/23 04:58:43;;;;;;;;;;;;;;;;;;5118863;28;19911;-74
2022/04/23 05:01:08;;;;;;;;;;;;;;;;;;5119113;28;19934;-74
2022/04/23 05:03:33;;;;;;;;;;;;;;;;;;5119283;28;19912;-74
2022/04/23 05:05:59;;;;;;;;;;;;;;;;;;5118339;28;20010;-73
2022/04/23 05:08:24;;;;;;;;;;;;;;;;;;5119163;28;19918;-73
2022/04/23 05:10:49;;;;;;;;;;;;;;;;;;5118956;28;19912;-74
2022/04/23 05:13:17;;;;;;;;;;;;;;;;;;5119106;28;19980;-74
2022/04/23 05:15:44;;;;;;;;;;;;;;;;;;5119015;28;20256;-74
2022/04/23 05:18:10;;;;;;;;;;;;;;;;;;5118944;28;19912;-74
2022/04/23 05:20:35;;;;;;;;;;;;;;;;;;5118641;28;20237;-74
2022/04/23 05:23:03;;;;;;;;;;;;;;;;;;5117627;28;20020;-73
2022/04/23 05:25:28;;;;;;;;;;;;;;;;;;5118831;27;20328;-74
2022/04/23 05:27:53;;;;;;;;;;;;;;;;;;5118662;28;20041;-74
2022/04/23 05:30:18;;;;;;;;;;;;;;;;;;5118574;28;19911;-74
2022/04/23 05:32:46;;;;;;;;;;;;;;;;;;5118875;28;19916;-74
2022/04/23 05:35:11;;;;;;;;;;;;;;;;;;5118452;28;20350;-74
2022/04/23 05:37:37;;;;;;;;;;;;;;;;;;5117761;28;19912;-74
2022/04/23 05:40:02;;;;;;;;;;;;;;;;;;5118483;28;20345;-74
2022/04/23 05:42:27;;;;;;;;;;;;;;;;;;5117584;28;20199;-74
2022/04/23 05:44:54;;;;;;;;;;;;;;;;;;5119002;28;19920;-75
2022/04/23 05:47:20;;;;;;;;;;;;;;;;;;5118523;28;19976;-75
2022/04/23 05:49:46;;;;;;;;;;;;;;;;;;5118385;28;19915;-75
2022/04/23 05:52:13;;;;;;;;;;;;;;;;;;5116994;28;19998;-75
2022/04/23 05:54:40;;;;;;;;;;;;;;;;;;5118422;28;19927;-75
2022/04/23 05:57:06;;;;;;;;;;;;;;;;;;5118017;28;19919;-75
2022/04/23 05:59:31;;;;;;;;;;;;;;;;;;5118144;28;20057;-75
2022/04/23 06:01:57;;;;;;;;;;;;;;;;;;5118239;28;20218;-76
2022/04/23 06:04:26;;;;;;;;;;;;;;;;;;5118236;28;19912;-75
2022/04/23 06:06:51;;;;;;;;;;;;;;;;;;5117261;28;19956;-76
2022/04/23 06:09:19;;;;;;;;;;;;;;;;;;5117073;28;19923;-76
2022/04/23 06:11:44;;;;;;;;;;;;;;;;;;5118069;28;20236;-75
2022/04/23 06:14:12;;;;;;;;;;;;;;;;;;5117893;28;19918;-75
2022/04/23 06:16:39;;;;;;;;;;;;;;;;;;5117771;28;20317;-77
2022/04/23 06:19:05;;;;;;;;;;;;;;;;;;5117499;28;19943;-77
2022/04/23 06:21:33;;;;;;;;;;;;;;;;;;5116973;28;20368;-75
2022/04/23 06:24:00;;;;;;;;;;;;;;;;;;5117687;27;20015;-77
2022/04/23 06:26:25;;;;;;;;;;;;;;;;;;5117710;28;19912;-75
2022/04/23 06:28:51;;;;;;;;;;;;;;;;;;5116660;28;20218;-76
2022/04/23 06:31:16;;;;;;;;;;;;;;;;;;5116799;28;19955;-76
2022/04/23 06:33:44;;;;;;;;;;;;;;;;;;5117408;28;19911;-76
2022/04/23 06:36:13;;;;;;;;;;;;;;;;;;5116839;28;19914;-76
2022/04/23 06:38:38;;;;;;;;;;;;;;;;;;5117204;28;19935;-77
2022/04/23 06:41:06;;;;;;;;;;;;;;;;;;5116913;28;20329;-77
2022/04/23 06:43:34;;;;;;;;;;;;;;;;;;5099392;28;19911;-76
2022/04/23 06:45:59;;;;;;;;;;;;;;;;;;5116610;28;19938;-76
2022/04/23 06:48:27;;;;;;;;;;;;;;;;;;5116908;28;19915;-76
2022/04/23 06:50:52;;;;;;;;;;;;;;;;;;5116135;28;20263;-77
2022/04/23 06:53:20;;;;;;;;;;;;;;;;;;5116946;28;20359;-77
2022/04/23 06:55:45;;;;;;;;;;;;;;;;;;5116598;28;19999;-77
2022/04/23 06:58:11;;;;;;;;;;;;;;;;;;5116772;28;19966;-77
2022/04/23 07:00:40;;;;;;;;;;;;;;;;;;5116733;28;20002;-77
2022/04/23 07:03:05;;;;;;;;;;;;;;;;;;5116206;28;19951;-76
2022/04/23 07:05:30;;;;;;;;;;;;;;;;;;5115178;28;19919;-77
2022/04/23 07:07:58;;;;;;;;;;;;;;;;;;5116495;28;19915;-77
2022/04/23 07:10:24;;;;;;;;;;;;;;;;;;5116376;28;20331;-77
2022/04/23 07:12:52;;;;;;;;;;;;;;;;;;5098621;28;19961;-76
2022/04/23 07:15:17;;;;;;;;;;;;;;;;;;5116300;28;19912;-77
2022/04/23 07:17:42;;;;;;;;;;;;;;;;;;5116159;28;19912;-76
2022/04/23 07:20:08;;;;;;;;;;;;;;;;;;5115086;28;19919;-77
2022/04/23 07:22:33;;;;;;;;;;;;;;;;;;5115223;28;19912;-76
2022/04/23 07:24:58;;;;;;;;;;;;;;;;;;5115340;28;19919;-77
2022/04/23 07:27:23;;;;;;;;;;;;;;;;;;5116217;28;20249;-77
2022/04/23 07:29:51;;;;;;;;;;;;;;;;;;5094502;28;19924;-76
2022/04/23 07:32:19;;;;;;;;;;;;;;;;;;5110551;28;19927;-76
2022/04/23 07:37:29;;;;;;;;;;;;;;;;;;5115873;28;19923;-76
2022/04/23 07:39:58;;;;;;;;;;;;;;;;;;5115783;28;19916;-77
2022/04/23 07:42:23;;;;;;;;;;;;;;;;;;5115113;28;19912;-76
2022/04/23 07:44:49;;;;;;;;;;;;;;;;;;5115821;28;20013;-75
2022/04/23 07:47:19;;;;;;;;;;;;;;;;;;5115460;28;20250;-77
2022/04/23 07:49:44;;;;;;;;;;;;;;;;;;5098298;28;19927;-77
2022/04/23 07:52:10;;;;;;;;;;;;;;;;;;5100133;28;19911;-77
2022/04/23 07:54:38;;;;;;;;;;;;;;;;;;5115666;28;20011;-76
2022/04/23 07:57:07;;;;;;;;;;;;;;;;;;5115359;28;20279;-76
2022/04/23 07:59:32;;;;;;;;;;;;;;;;;;5115199;28;19920;-77
2022/04/23 08:02:01;;;;;;;;;;;;;;;;;;5114482;28;20393;-76
2022/04/23 08:04:28;;;;;;;;;;;;;;;;;;5115287;28;19958;-77
2022/04/23 08:06:53;;;;;;;;;;;;;;;;;;5115265;28;19915;-76
2022/04/23 08:09:19;;;;;;;;;;;;;;;;;;5115207;28;19975;-75
2022/04/23 08:11:46;;;;;;;;;;;;;;;;;;5115319;28;20049;-76
2022/04/23 08:14:11;;;;;;;;;;;;;;;;;;5114358;28;19912;-77
2022/04/23 08:16:42;;;;;;;;;;;;;;;;;;5114296;28;20269;-76
2022/04/23 08:19:08;;;;;;;;;;;;;;;;;;5114043;28;19926;-76
2022/04/23 08:21:34;;;;;;;;;;;;;;;;;;5115218;28;19976;-76
2022/04/23 08:23:59;;;;;;;;;;;;;;;;;;5115269;28;19916;-76
2022/04/23 08:26:27;;;;;;;;;;;;;;;;;;5113988;28;19916;-76
2022/04/23 08:31:36;;;;;;;;;;;;;;;;;;5115300;28;19923;-77
2022/04/23 08:34:01;;;;;;;;;;;;;;;;;;5115065;28;19912;-76
2022/04/23 08:36:31;;;;;;;;;;;;;;;;;;5115126;28;20241;-78
2022/04/23 08:38:57;;;;;;;;;;;;;;;;;;5115040;28;19916;-77
2022/04/23 08:41:34;;;;;;;;;;;;;;;;;;5115140;28;20011;-76
2022/04/23 08:44:05;;;;;;;;;;;;;;;;;;5115044;28;19999;-77
2022/04/23 08:46:30;;;;;;;;;;;;;;;;;;5114856;28;19980;-76
2022/04/23 08:49:00;;;;;;;;;;;;;;;;;;5114861;28;20325;-77
2022/04/23 08:51:25;;;;;;;;;;;;;;;;;;5113620;28;20360;-76
2022/04/23 08:53:51;;;;;;;;;;;;;;;;;;5113787;28;20014;-78
2022/04/23 08:56:18;;;;;;;;;;;;;;;;;;5114035;28;20010;-76
2022/04/23 08:58:44;;;;;;;;;;;;;;;;;;5114459;28;20269;-76
2022/04/23 09:01:09;;;;;;;;;;;;;;;;;;5114871;28;19923;-76
2022/04/23 09:03:36;;;;;;;;;;;;;;;;;;5114543;28;20508;-77
2022/04/23 09:06:02;;;;;;;;;;;;;;;;;;5114198;28;19912;-77
2022/04/23 09:08:29;;;;;;;;;;;;;;;;;;5114155;28;19916;-77
2022/04/23 09:10:55;;;;;;;;;;;;;;;;;;5115220;28;19996;-77
2022/04/23 09:13:27;;;;;;;;;;;;;;;;;;5115270;28;20015;-76
2022/04/23 09:24:22;;;;;;;;;;;;;;;;;;5114055;28;20297;-76
2022/04/23 09:27:03;;;;;;;;;;;;;;;;;;5114990;28;19951;-78
2022/04/23 09:29:30;;;;;;;;;;;;;;;;;;5101019;28;19990;-76
2022/04/23 09:32:17;;;;;;;;;;;;;;;;;;5118838;28;20345;-76
2022/04/23 09:34:42;;;;;;;;;;;;;;;;;;5118572;28;19998;-77
2022/04/23 09:37:10;;;;;;;;;;;;;;;;;;5118840;28;20118;-77
2022/04/23 09:39:35;;;;;;;;;;;;;;;;;;5118621;28;20425;-76
2022/04/23 09:42:14;;;;;;;;;;;;;;;;;;5118686;28;19962;-77
2022/04/23 09:44:39;;;;;;;;;;;;;;;;;;5117424;28;19930;-77
2022/04/23 09:47:04;;;;;;;;;;;;;;;;;;5117526;28;19991;-78
2022/04/23 09:49:29;;;;;;;;;;;;;;;;;;5118592;28;20006;-76
2022/04/23 09:52:04;;;;;;;;;;;;;;;;;;5118269;28;19911;-77
2022/04/23 09:54:34;;;;;;;;;;;;;;;;;;5117518;28;19912;-77
2022/04/23 09:57:02;;;;;;;;;;;;;;;;;;5100723;28;19911;-77
2022/04/23 09:59:29;;;;;;;;;;;;;;;;;;5118227;28;19948;-76
2022/04/23 10:01:54;;;;;;;;;;;;;;;;;;5117247;28;19998;-77
2022/04/23 10:04:29;;;;;;;;;;;;;;;;;;5111695;28;19955;-77
2022/04/23 10:06:56;;;;;;;;;;;;;;;;;;5107677;28;19912;-78
2022/04/23 10:09:29;;;;;;;;;;;;;;;;;;5097595;28;19918;-77
2022/04/23 10:12:13;;;;;;;;;;;;;;;;;;5102405;28;19923;-77
2022/04/23 10:14:40;;;;;;;;;;;;;;;;;;5106607;28;19916;-78
2022/04/23 10:17:10;;;;;;;;;;;;;;;;;;5103038;28;19999;-77
2022/04/23 10:19:38;;;;;;;;;;;;;;;;;;5100785;28;19930;-77
2022/04/23 10:22:03;;;;;;;;;;;;;;;;;;5111162;28;19961;-78
2022/04/23 10:24:47;;;;;;;;;;;;;;;;;;5106725;27;19916;-78
2022/04/23 10:27:18;;;;;;;;;;;;;;;;;;5101020;28;19996;-78
2022/04/23 10:29:50;;;;;;;;;;;;;;;;;;5112099;28;20031;-78
2022/04/23 10:32:19;;;;;;;;;;;;;;;;;;5116658;28;20255;-77
2022/04/23 10:34:47;;;;;;;;;;;;;;;;;;5117595;28;19958;-78
2022/04/23 10:37:16;;;;;;;;;;;;;;;;;;5111151;28;19920;-78
2022/04/23 10:39:42;;;;;;;;;;;;;;;;;;5108572;28;19940;-78
2022/04/23 10:42:11;;;;;;;;;;;;;;;;;;5111272;28;19955;-78
2022/04/23 10:44:36;;;;;;;;;;;;;;;;;;5105141;28;19923;-78
2022/04/23 10:47:09;;;;;;;;;;;;;;;;;;5110746;28;19922;-80
2022/04/23 10:49:37;;;;;;;;;;;;;;;;;;5104730;28;19920;-79
2022/04/23 10:52:03;;;;;;;;;;;;;;;;;;5112395;28;19911;-79
2022/04/23 10:54:40;;;;;;;;;;;;;;;;;;5117216;28;19984;-78
2022/04/23 10:57:06;;;;;;;;;;;;;;;;;;5116236;28;20293;-79
2022/04/23 10:59:36;;;;;;;;;;;;;;;;;;5115540;28;19926;-79
2022/04/23 11:02:02;;;;;;;;;;;;;;;;;;5110126;28;20430;-79
2022/04/23 11:04:27;;;;;;;;;;;;;;;;;;5100988;28;20342;-79
2022/04/23 11:12:28;;;;;;;;;;;;;;;;;;5116527;28;19923;-79
2022/04/23 11:14:56;;;;;;;;;;;;;;;;;;5116506;28;19912;-78
2022/04/23 11:17:25;;;;;;;;;;;;;;;;;;5098539;28;19912;-79
2022/04/23 11:19:51;;;;;;;;;;;;;;;;;;5116827;28;20027;-80
2022/04/23 11:22:16;;;;;;;;;;;;;;;;;;5096819;28;19916;-79
2022/04/23 11:24:41;;;;;;;;;;;;;;;;;;5084478;28;19912;-80
2022/04/23 11:27:10;;;;;;;;;;;;;;;;;;5115939;28;19989;-80
2022/04/23 11:29:35;;;;;;;;;;;;;;;;;;5105556;28;19912;-81
2022/04/23 11:32:01;;;;;;;;;;;;;;;;;;5110619;28;19964;-79
2022/04/23 11:34:29;;;;;;;;;;;;;;;;;;5108161;28;19923;-78
2022/04/23 11:36:54;;;;;;;;;;;;;;;;;;5101608;28;19912;-78
2022/04/23 11:39:20;;;;;;;;;;;;;;;;;;5106926;28;19948;-78
2022/04/23 11:41:49;;;;;;;;;;;;;;;;;;5104235;28;19923;-78
2022/04/23 11:44:19;;;;;;;;;;;;;;;;;;5096432;28;19911;-79
2022/04/23 11:46:45;;;;;;;;;;;;;;;;;;5101480;28;19920;-78
2022/04/23 11:49:33;;;;;;;;;;;;;;;;;;5111545;28;19976;-77
2022/04/23 11:52:08;;;;;;;;;;;;;;;;;;5103041;28;20394;-78
2022/04/23 11:54:40;;;;;;;;;;;;;;;;;;5103980;28;20000;-78
2022/04/23 11:57:07;;;;;;;;;;;;;;;;;;5111286;28;19915;-77
2022/04/23 11:59:44;;;;;;;;;;;;;;;;;;5095085;28;20225;-77
2022/04/23 12:02:24;;;;;;;;;;;;;;;;;;5081619;28;20364;-76
2022/04/23 12:04:55;;;;;;;;;;;;;;;;;;5112022;28;19912;-79
2022/04/23 12:07:22;;;;;;;;;;;;;;;;;;5116026;27;19920;-79
2022/04/23 12:09:57;;;;;;;;;;;;;;;;;;5094685;28;19916;-77
2022/04/23 12:12:24;;;;;;;;;;;;;;;;;;5096687;28;19934;-78
2022/04/23 12:15:06;;;;;;;;;;;;;;;;;;5113650;28;19933;-77
2022/04/23 12:17:32;;;;;;;;;;;;;;;;;;5101582;28;19915;-78
2022/04/23 12:19:57;;;;;;;;;;;;;;;;;;5110554;28;19920;-76
2022/04/23 12:22:23;;;;;;;;;;;;;;;;;;5115927;28;19916;-77
2022/04/23 12:24:48;;;;;;;;;;;;;;;;;;5101701;28;19980;-77
2022/04/23 12:27:14;;;;;;;;;;;;;;;;;;5109048;28;19912;-78
2022/04/23 12:40:45;;;;;;;;;;;;;;;;;;5102967;28;20005;-77
2022/04/23 12:43:29;;;;;;;;;;;;;;;;;;5106011;28;20339;-77
2022/04/23 12:46:07;;;;;;;;;;;;;;;;;;5077292;28;20257;-77
2022/04/23 12:48:41;;;;;;;;;;;;;;;;;;5099531;28;19924;-76
2022/04/23 12:51:06;;;;;;;;;;;;;;;;;;5094970;28;19935;-77
2022/04/23 12:53:34;;;;;;;;;;;;;;;;;;5110397;28;20272;-77
2022/04/23 12:56:05;;;;;;;;;;;;;;;;;;5105978;28;19916;-77
2022/04/23 12:58:31;;;;;;;;;;;;;;;;;;5106729;28;19911;-77
2022/04/23 13:00:56;;;;;;;;;;;;;;;;;;5111243;28;19980;-77
2022/04/23 13:05:46;;;;;;;;;;;;;;;;;;5098760;28;19912;-77
2022/04/23 13:11:24;;;;;;;;;;;;;;;;;;5115715;28;19939;-80
2022/04/23 13:13:45;;;;;;;;;;;;;;;;;;5104132;28;20320;-78
2022/04/23 13:16:11;;;;;;;;;;;;;;;;;;5098736;28;19922;-78
2022/04/23 13:18:40;;;;;;;;;;;;;;;;;;5118478;28;19912;-78
2022/04/23 13:21:07;;;;;;;;;;;;;;;;;;5118489;28;20344;-77
2022/04/23 13:23:33;;;;;;;;;;;;;;;;;;5117316;28;19922;-78
2022/04/23 13:26:01;;;;;;;;;;;;;;;;;;5117675;28;19916;-77
2022/04/23 13:28:28;;;;;;;;;;;;;;;;;;5118442;28;19991;-77
2022/04/23 13:30:54;;;;;;;;;;;;;;;;;;5118416;28;19912;-77
2022/04/23 13:33:19;;;;;;;;;;;;;;;;;;5099560;28;19926;-78
2022/04/23 13:35:44;;;;;;;;;;;;;;;;;;5117490;28;19916;-77
2022/04/23 13:38:13;;;;;;;;;;;;;;;;;;5117403;28;19950;-77
2022/04/23 13:40:41;;;;;;;;;;;;;;;;;;5118210;28;19920;-78
2022/04/23 13:43:08;;;;;;;;;;;;;;;;;;5117466;28;20349;-77
2022/04/23 13:45:36;;;;;;;;;;;;;;;;;;5116868;28;19937;-77
2022/04/23 13:48:04;;;;;;;;;;;;;;;;;;5117216;28;20014;-77
2022/04/23 13:50:32;;;;;;;;;;;;;;;;;;5117185;28;19962;-77
2022/04/23 13:52:57;;;;;;;;;;;;;;;;;;5117259;28;19912;-77
2022/04/23 13:55:25;;;;;;;;;;;;;;;;;;5116954;28;20281;-77
2022/04/23 13:57:52;;;;;;;;;;;;;;;;;;5117764;28;19920;-78
2022/04/23 14:00:18;;;;;;;;;;;;;;;;;;5117091;28;19967;-80
2022/04/23 14:10:55;;;;;;;;;;;;;;;;;;5114848;28;19963;-76
2022/04/23 14:13:20;;;;;;;;;;;;;;;;;;5117648;28;20284;-77
2022/04/23 14:15:48;;;;;;;;;;;;;;;;;;5125790;28;19912;-77
2022/04/23 14:18:13;;;;;;;;;;;;;;;;;;5124861;28;19911;-77
2022/04/23 14:20:39;;;;;;;;;;;;;;;;;;5103044;28;19973;-78
2022/04/23 14:23:04;;;;;;;;;;;;;;;;;;5119866;28;19912;-77
2022/04/23 14:25:33;;;;;;;;;;;;;;;;;;5118807;28;19911;-78
2022/04/23 14:28:02;;;;;;;;;;;;;;;;;;5086178;28;20007;-77
2022/04/23 14:30:27;;;;;;;;;;;;;;;;;;5096559;28;19912;-77
2022/04/23 14:32:55;;;;;;;;;;;;;;;;;;5116862;28;19928;-79
2022/04/23 14:35:20;;;;;;;;;;;;;;;;;;5117569;28;19912;-77
2022/04/23 14:37:45;;;;;;;;;;;;;;;;;;5116549;28;19918;-77
2022/04/23 14:40:13;;;;;;;;;;;;;;;;;;5117982;28;19941;-79
2022/04/23 14:42:39;;;;;;;;;;;;;;;;;;5117782;28;19927;-77
2022/04/23 14:45:07;;;;;;;;;;;;;;;;;;5118461;28;19916;-76
2022/04/23 14:47:33;;;;;;;;;;;;;;;;;;5117919;28;19912;-76
2022/04/23 14:49:58;;;;;;;;;;;;;;;;;;5100098;28;20320;-76
2022/04/23 14:55:07;;;;;;;;;;;;;;;;;;5116992;28;19923;-77
2022/04/23 14:57:34;;;;;;;;;;;;;;;;;;5117097;28;19920;-77
2022/04/23 15:00:02;;;;;;;;;;;;;;;;;;5116919;28;19972;-77
2022/04/23 15:02:28;;;;;;;;;;;;;;;;;;5116705;28;19922;-76
2022/04/23 15:04:55;;;;;;;;;;;;;;;;;;5117413;28;19907;-76
2022/04/23 15:07:20;;;;;;;;;;;;;;;;;;5117237;28;19911;-77
2022/04/23 15:09:47;;;;;;;;;;;;;;;;;;5116282;28;20369;-76
2022/04/23 15:12:13;;;;;;;;;;;;;;;;;;5115487;28;19912;-76
2022/04/23 15:14:39;;;;;;;;;;;;;;;;;;5116428;28;20006;-76
2022/04/23 15:17:05;;;;;;;;;;;;;;;;;;5116495;28;19912;-76
2022/04/23 15:19:30;;;;;;;;;;;;;;;;;;5115836;28;19930;-76
2022/04/23 15:21:56;;;;;;;;;;;;;;;;;;5115416;28;19912;-76
2022/04/23 15:24:23;;;;;;;;;;;;;;;;;;5115740;28;19960;-76
2022/04/23 15:26:50;;;;;;;;;;;;;;;;;;5115505;28;20273;-76
2022/04/23 15:29:15;;;;;;;;;;;;;;;;;;5099139;28;19916;-76
2022/04/23 15:31:41;;;;;;;;;;;;;;;;;;5098163;28;20389;-75
2022/04/23 15:34:06;;;;;;;;;;;;;;;;;;5116017;28;20368;-76
2022/04/23 15:36:31;;;;;;;;;;;;;;;;;;5116492;28;19912;-76
2022/04/23 15:38:59;;;;;;;;;;;;;;;;;;5116307;28;19912;-75
2022/04/23 15:41:26;;;;;;;;;;;;;;;;;;5116340;28;20332;-76
2022/04/23 15:43:51;;;;;;;;;;;;;;;;;;5098273;28;19912;-76
2022/04/23 15:46:19;;;;;;;;;;;;;;;;;;5116086;28;20225;-77
2022/04/23 15:48:45;;;;;;;;;;;;;;;;;;5116517;28;20352;-77
2022/04/23 15:51:13;;;;;;;;;;;;;;;;;;5116375;28;19950;-77
2022/04/23 15:53:38;;;;;;;;;;;;;;;;;;5098049;28;19989;-77
2022/04/23 15:56:05;;;;;;;;;;;;;;;;;;5115386;28;19920;-77
2022/04/23 15:58:32;;;;;;;;;;;;;;;;;;5116528;28;19999;-76
2022/04/23 16:00:58;;;;;;;;;;;;;;;;;;5116120;28;19919;-77
2022/04/23 16:03:27;;;;;;;;;;;;;;;;;;5115255;28;19918;-77
2022/04/23 16:05:53;;;;;;;;;;;;;;;;;;5114945;28;19965;-77
2022/04/23 16:08:18;;;;;;;;;;;;;;;;;;5116242;28;19919;-77
2022/04/23 16:10:43;;;;;;;;;;;;;;;;;;5115204;28;19926;-77
2022/04/23 16:13:09;;;;;;;;;;;;;;;;;;5115192;28;19911;-77
2022/04/23 16:15:34;;;;;;;;;;;;;;;;;;5116272;28;20248;-76
2022/04/23 16:17:59;;;;;;;;;;;;;;;;;;5114843;28;19911;-77
2022/04/23 16:20:25;;;;;;;;;;;;;;;;;;5116208;28;20012;-76
2022/04/23 16:22:52;;;;;;;;;;;;;;;;;;5115000;28;19916;-77
2022/04/23 16:25:20;;;;;;;;;;;;;;;;;;5115853;28;20233;-76
2022/04/23 16:27:45;;;;;;;;;;;;;;;;;;5114546;28;19912;-77
2022/04/23 16:30:10;;;;;;;;;;;;;;;;;;5115536;28;20376;-78
2022/04/23 16:32:36;;;;;;;;;;;;;;;;;;5114678;28;19972;-76
2022/04/23 16:35:04;;;;;;;;;;;;;;;;;;5114835;28;20358;-77
2022/04/23 16:48:25;;;;;;;;;;;;;;;;;;5119023;28;20347;-77
2022/04/23 16:50:50;;;;;;;;;;;;;;;;;;5119478;28;19920;-77
2022/04/23 16:53:15;;;;;;;;;;;;;;;;;;5118693;28;20247;-76
2022/04/23 16:55:41;;;;;;;;;;;;;;;;;;5102637;28;19912;-77
2022/04/23 16:58:08;;;;;;;;;;;;;;;;;;5123025;28;19975;-78
2022/04/23 17:00:36;;;;;;;;;;;;;;;;;;5122445;28;19958;-77
2022/04/23 17:03:03;;;;;;;;;;;;;;;;;;5122604;28;19933;-77
2022/04/23 17:05:32;;;;;;;;;;;;;;;;;;5120505;28;20284;-75
2022/04/23 17:07:58;;;;;;;;;;;;;;;;;;5119170;28;19990;-75
2022/04/23 17:10:23;;;;;;;;;;;;;;;;;;5119396;28;20056;-75
2022/04/23 17:12:48;;;;;;;;;;;;;;;;;;5118018;28;20347;-76
2022/04/23 17:15:13;;;;;;;;;;;;;;;;;;5118857;28;19967;-75
2022/04/23 17:17:41;;;;;;;;;;;;;;;;;;5117987;28;19911;-75
2022/04/23 17:20:07;;;;;;;;;;;;;;;;;;5118719;28;19942;-75
2022/04/23 17:22:32;;;;;;;;;;;;;;;;;;5118201;28;19920;-75
2022/04/23 17:25:00;;;;;;;;;;;;;;;;;;5118942;28;19943;-77
2022/04/23 17:27:27;;;;;;;;;;;;;;;;;;5119002;28;19912;-76
2022/04/23 17:29:52;;;;;;;;;;;;;;;;;;5118446;28;19916;-76
2022/04/23 17:32:18;;;;;;;;;;;;;;;;;;5117767;28;19922;-76
2022/04/23 17:34:43;;;;;;;;;;;;;;;;;;5118544;28;19912;-76
2022/04/23 17:37:08;;;;;;;;;;;;;;;;;;5118720;28;19923;-76
2022/04/23 17:39:33;;;;;;;;;;;;;;;;;;5118973;28;19911;-76
2022/04/23 17:42:01;;;;;;;;;;;;;;;;;;5118859;28;19912;-76